Arvada, Wyoming
Current Conditions -  °F | °C
As of 5:53 PM on Friday 28 Nov 2014 (Local Time) from KBYG Reporting Station
Clear Clear  
Wind Chill: 12°   Ceiling: Unl
Heat Index: 12°   Visibility: 10mi
Dew Point: -7°   Wind: 31mph
Humidity: 26%   Direction: 240°WSW
Pressure: 29.55"   Gusts: 43mph
Location:  44.65°N, 106.13°W
Report Text: KBYG 290053Z AUTO 24027G37KT 10SM CLR 12/M07 A2955 RMK AO2 PK WND 25042/0040 SLP980 T01171072
Loading
Personal Weather Stations






























Interactive Weather Map New forecast layout! Learn more

10-Day Weather Forecast

Advertisements
Track Severe Weather on mobile